Terminal Aerodrome Forecast
Issued by NWS Twin Cities, MN

Home | Current Version | Previous Version | Text Only | Print | Product List | Glossary Off
Versions: 1 2 3 4 5 6 7 8 9 10 11 12 13 14 15 16 17 18 19 20 21 22 23 24 25 26 27 28

191
FTUS43 KMPX 241120
TAFMSP
TAF
KMSP 241120Z 2412/2518 18009KT P6SM SCT080 BKN200
     FM241600 17013G21KT P6SM SCT060 SCT150 PROB30 2423/2505 -TSRA
      BKN060CB
     FM250500 18009KT P6SM SCT050
     FM251400 22007KT P6SM SCT110=

USA.gov is the U.S. government's official web portal to all federal, state and local government web resources and services.